Terminal Aerodrome Forecast
Issued by NWS Charleston, WV

Current Version | Previous Version | Graphics & Text | Print | Product List | Glossary On
Versions: 1 2 3 4 5 6 7 8 9 10 11 12 13 14 15 16 17 18 19 20 21
099
FTUS41 KRLX 192336
TAFBKW
TAF
KBKW 192336Z 2000/2024 19005KT P6SM VCTS BKN050CB
     FM200200 21007KT 4SM -SHRA SCT006 BKN040
     FM200900 25004KT P6SM BKN025
     FM201200 25004KT P6SM BKN015
     FM201600 28006KT P6SM BKN045=

USA.gov is the U.S. government's official web portal to all federal, state and local government web resources and services.